createdAt,value
2022-10-24T00:01:21.655Z,15.20
2022-10-24T00:03:49.173Z,15.50
2022-10-24T00:06:16.320Z,15.30
2022-10-24T00:08:43.645Z,15.10
2022-10-24T00:11:12.505Z,14.80
2022-10-24T00:13:39.515Z,14.60
2022-10-24T00:16:06.460Z,14.60
2022-10-24T00:18:33.112Z,14.60
2022-10-24T00:20:59.589Z,14.40
2022-10-24T00:23:26.170Z,14.20
2022-10-24T00:25:52.637Z,13.90
2022-10-24T00:28:19.088Z,13.80
2022-10-24T00:30:45.644Z,13.70
2022-10-24T00:33:12.108Z,13.80
2022-10-24T00:35:38.691Z,14.00
2022-10-24T00:38:05.184Z,14.00
2022-10-24T00:40:31.688Z,14.00
2022-10-24T00:42:58.286Z,14.10
2022-10-24T00:46:03.304Z,14.10
2022-10-24T00:48:42.948Z,14.20
2022-10-24T00:51:24.766Z,14.40
2022-10-24T00:53:54.087Z,14.20
2022-10-24T00:56:23.513Z,14.30
2022-10-24T00:58:50.147Z,14.30
2022-10-24T01:01:16.843Z,14.00
2022-10-24T01:03:43.525Z,13.80
2022-10-24T01:06:34.181Z,13.70
2022-10-24T01:09:19.300Z,13.70
2022-10-24T01:12:13.803Z,13.70
2022-10-24T01:14:40.220Z,13.60
2022-10-24T01:17:33.022Z,13.80
2022-10-24T01:20:34.907Z,13.80
2022-10-24T01:23:07.162Z,14.00
2022-10-24T01:26:04.754Z,14.60
2022-10-24T01:28:42.415Z,15.00
2022-10-24T01:31:17.249Z,15.30
2022-10-24T01:33:50.116Z,15.40
2022-10-24T01:36:21.504Z,15.70
2022-10-24T01:38:52.493Z,15.90
2022-10-24T01:41:21.640Z,16.00
2022-10-24T01:46:24.978Z,16.10
2022-10-24T01:48:56.616Z,16.30
2022-10-24T01:51:25.577Z,16.20
2022-10-24T01:53:52.728Z,16.40
2022-10-24T01:56:19.206Z,16.10
2022-10-24T01:58:45.744Z,16.00
2022-10-24T02:01:15.995Z,16.10
2022-10-24T02:03:50.190Z,16.00
2022-10-24T02:06:21.332Z,16.20
2022-10-24T02:08:53.238Z,16.30
2022-10-24T02:11:22.890Z,16.40
2022-10-24T02:14:14.290Z,15.90
2022-10-24T02:16:41.369Z,16.00
2022-10-24T02:19:07.894Z,15.70
2022-10-24T02:22:12.202Z,15.60
2022-10-24T02:24:45.916Z,16.10
2022-10-24T02:27:16.714Z,16.30
2022-10-24T02:30:01.117Z,16.10
2022-10-24T02:32:31.947Z,15.90
2022-10-24T02:34:59.080Z,16.10
2022-10-24T02:37:27.984Z,15.90
2022-10-24T02:39:55.121Z,15.80
2022-10-24T02:42:22.907Z,16.10
2022-10-24T02:44:49.410Z,16.10
2022-10-24T02:47:16.517Z,16.20
2022-10-24T02:49:43.273Z,16.30
2022-10-24T02:52:10.205Z,16.30
2022-10-24T02:54:36.803Z,16.10
2022-10-24T02:57:04.338Z,16.00
2022-10-24T02:59:30.849Z,15.90
2022-10-24T03:01:57.498Z,15.90
2022-10-24T03:04:24.152Z,15.90
2022-10-24T03:06:50.728Z,15.60
2022-10-24T03:09:17.229Z,15.50
2022-10-24T03:11:43.659Z,15.10
2022-10-24T03:14:10.144Z,14.80
2022-10-24T03:16:36.728Z,15.00
2022-10-24T03:19:03.425Z,15.00
2022-10-24T03:21:29.925Z,15.10
2022-10-24T03:23:56.567Z,15.20
2022-10-24T03:26:23.255Z,15.50
2022-10-24T03:28:49.728Z,15.70
2022-10-24T03:31:16.210Z,15.90
2022-10-24T03:33:42.697Z,15.60
2022-10-24T03:36:09.264Z,15.30
2022-10-24T03:38:35.748Z,15.20
2022-10-24T03:41:02.294Z,14.80
2022-10-24T03:43:28.748Z,14.80
2022-10-24T03:45:55.286Z,14.30
2022-10-24T03:48:21.790Z,14.30
2022-10-24T03:50:48.644Z,14.20
2022-10-24T03:53:15.109Z,14.40
2022-10-24T03:55:41.549Z,14.20
2022-10-24T03:58:08.107Z,14.40
2022-10-24T04:00:39.277Z,14.50
2022-10-24T04:03:07.317Z,14.60
2022-10-24T04:05:34.426Z,14.20
2022-10-24T04:08:00.933Z,13.90
2022-10-24T04:10:27.679Z,13.70
2022-10-24T04:12:54.312Z,13.50
2022-10-24T04:15:21.085Z,13.70
2022-10-24T04:17:47.817Z,13.60
2022-10-24T04:20:19.270Z,13.60
2022-10-24T04:22:46.793Z,14.00
2022-10-24T04:25:13.572Z,13.90
2022-10-24T04:27:40.747Z,14.00
2022-10-24T04:30:11.593Z,14.30
2022-10-24T04:32:42.266Z,14.30
2022-10-24T04:35:09.458Z,14.10
2022-10-24T04:37:35.950Z,14.10
2022-10-24T04:40:02.792Z,14.10
2022-10-24T04:42:29.766Z,14.30
2022-10-24T04:44:56.310Z,14.20
2022-10-24T04:47:23.060Z,13.80
2022-10-24T04:49:49.556Z,13.60
2022-10-24T04:52:16.005Z,13.40
2022-10-24T04:54:42.491Z,13.40
2022-10-24T04:57:09.115Z,13.20
2022-10-24T04:59:35.688Z,13.30
2022-10-24T05:02:02.219Z,13.40
2022-10-24T05:04:28.769Z,13.40
2022-10-24T05:06:55.313Z,13.50
2022-10-24T05:09:21.849Z,13.50
2022-10-24T05:11:48.326Z,13.20
2022-10-24T05:14:14.786Z,13.20
2022-10-24T05:16:41.486Z,13.20
2022-10-24T05:19:08.063Z,13.20
2022-10-24T05:21:34.532Z,13.30
2022-10-24T05:24:01.170Z,13.40
2022-10-24T05:26:27.739Z,13.50
2022-10-24T05:28:54.394Z,13.30
2022-10-24T05:31:20.964Z,13.60
2022-10-24T05:33:47.581Z,13.40
2022-10-24T05:36:14.089Z,13.40
2022-10-24T05:38:40.603Z,13.60
2022-10-24T05:41:07.175Z,13.80
2022-10-24T05:43:33.698Z,13.60
2022-10-24T05:46:00.220Z,13.50
2022-10-24T05:48:26.795Z,13.70
2022-10-24T05:50:57.867Z,13.70
2022-10-24T05:53:25.656Z,13.80
2022-10-24T05:55:52.146Z,13.80
2022-10-24T05:58:22.362Z,13.80
2022-10-24T06:00:53.836Z,13.70
2022-10-24T06:03:21.234Z,13.80
2022-10-24T06:05:47.675Z,13.80
2022-10-24T06:08:14.189Z,13.80
2022-10-24T06:10:40.892Z,13.80
2022-10-24T06:13:07.722Z,13.90
2022-10-24T06:15:34.183Z,13.90
2022-10-24T06:18:00.651Z,14.00
2022-10-24T06:20:27.362Z,14.50
2022-10-24T06:22:53.897Z,14.80
2022-10-24T06:25:20.439Z,14.90
2022-10-24T06:27:46.946Z,15.10
2022-10-24T06:30:13.455Z,14.80
2022-10-24T06:32:43.635Z,14.70
2022-10-24T06:35:13.407Z,14.30
2022-10-24T06:37:42.875Z,14.20
2022-10-24T06:40:12.341Z,14.30
2022-10-24T06:42:38.891Z,14.20
2022-10-24T06:45:06.324Z,14.10
2022-10-24T06:47:32.906Z,14.00
2022-10-24T06:49:59.411Z,14.00
2022-10-24T06:52:25.919Z,14.10
2022-10-24T06:54:52.437Z,14.10
2022-10-24T06:57:19.059Z,14.20
2022-10-24T06:59:45.836Z,14.10
2022-10-24T07:02:16.665Z,14.30
2022-10-24T07:04:43.443Z,14.00
2022-10-24T07:07:16.039Z,14.00
2022-10-24T07:09:42.938Z,14.00
2022-10-24T07:12:09.556Z,13.90
2022-10-24T07:14:36.215Z,14.00
2022-10-24T07:17:04.511Z,14.00
2022-10-24T07:19:33.883Z,14.00
2022-10-24T07:22:03.041Z,14.00
2022-10-24T07:24:29.524Z,14.30
2022-10-24T07:26:56.078Z,14.30
2022-10-24T07:29:22.595Z,14.50
2022-10-24T07:31:49.134Z,14.40
2022-10-24T07:34:15.622Z,14.40
2022-10-24T07:36:43.866Z,14.50
2022-10-24T07:39:11.830Z,14.40
2022-10-24T07:41:41.236Z,14.40
2022-10-24T07:44:08.447Z,14.50
2022-10-24T07:46:35.060Z,14.40
2022-10-24T07:49:01.497Z,14.40
2022-10-24T07:51:29.658Z,14.40
2022-10-24T07:53:59.582Z,14.40
2022-10-24T07:56:26.512Z,14.60
2022-10-24T07:58:53.066Z,14.70
2022-10-24T08:01:21.933Z,14.70
2022-10-24T08:03:48.950Z,14.80
2022-10-24T08:06:18.758Z,14.80
2022-10-24T08:08:45.751Z,14.90
2022-10-24T08:11:24.823Z,14.90
2022-10-24T08:13:52.420Z,15.10
2022-10-24T08:16:20.893Z,15.30
2022-10-24T08:18:47.841Z,15.30
2022-10-24T08:21:16.168Z,15.40
2022-10-24T08:23:45.345Z,15.40
2022-10-24T08:26:14.402Z,15.50
2022-10-24T08:28:41.865Z,15.60
2022-10-24T08:31:11.890Z,15.70
2022-10-24T08:33:38.456Z,15.70
2022-10-24T08:36:07.708Z,15.90
2022-10-24T08:38:34.139Z,15.90
2022-10-24T08:41:00.705Z,16.00
2022-10-24T08:43:27.270Z,16.00
2022-10-24T08:46:18.656Z,16.20
2022-10-24T08:48:51.336Z,16.30
2022-10-24T08:51:42.541Z,16.10
2022-10-24T08:54:18.784Z,16.30
2022-10-24T08:56:45.615Z,16.30
2022-10-24T08:59:12.814Z,16.50
2022-10-24T09:01:52.495Z,16.60
2022-10-24T09:04:20.547Z,16.60
2022-10-24T09:06:47.707Z,16.90
2022-10-24T09:09:43.915Z,16.80
2022-10-24T09:12:16.602Z,16.90
2022-10-24T09:14:45.343Z,16.90
2022-10-24T09:17:20.287Z,17.00
2022-10-24T09:19:59.237Z,17.00
2022-10-24T09:22:28.970Z,17.30
2022-10-24T09:24:59.525Z,17.20
2022-10-24T09:27:29.562Z,17.20
2022-10-24T09:29:57.886Z,17.20
2022-10-24T09:32:26.785Z,17.30
2022-10-24T09:34:53.931Z,17.30
2022-10-24T09:37:42.750Z,17.50
2022-10-24T09:40:21.113Z,17.50
2022-10-24T09:42:58.129Z,17.50
2022-10-24T09:45:27.712Z,17.60
2022-10-24T09:47:58.970Z,17.80
2022-10-24T09:50:26.002Z,17.80
2022-10-24T09:52:54.247Z,17.70
2022-10-24T09:55:24.109Z,17.70
2022-10-24T09:57:56.741Z,17.70
2022-10-24T10:00:34.214Z,17.80
2022-10-24T10:03:23.747Z,18.10
2022-10-24T10:05:55.367Z,18.10
2022-10-24T10:08:24.499Z,18.10
2022-10-24T10:11:10.187Z,18.30
2022-10-24T10:13:45.606Z,18.20
2022-10-24T10:16:28.420Z,18.30
2022-10-24T10:19:16.077Z,18.30
2022-10-24T10:21:56.834Z,18.20
2022-10-24T10:24:39.027Z,18.30
2022-10-24T10:27:25.739Z,18.30
2022-10-24T10:30:12.039Z,18.20
2022-10-24T10:32:46.111Z,18.20
2022-10-24T10:35:24.340Z,18.10
2022-10-24T10:38:42.161Z,18.10
2022-10-24T10:41:34.443Z,18.10
2022-10-24T10:44:26.312Z,18.00
2022-10-24T10:47:08.658Z,18.00
2022-10-24T10:49:39.923Z,18.00
2022-10-24T10:52:07.488Z,17.90
2022-10-24T10:54:37.151Z,18.00
2022-10-24T10:57:08.257Z,18.00
2022-10-24T10:59:59.730Z,18.10
2022-10-24T11:02:57.864Z,18.00
2022-10-24T11:05:40.351Z,18.10
2022-10-24T11:08:49.028Z,18.20
2022-10-24T11:11:23.279Z,18.10
2022-10-24T11:13:54.753Z,18.20
2022-10-24T11:16:28.539Z,18.20
2022-10-24T11:18:59.705Z,18.20
2022-10-24T11:21:27.792Z,18.40
2022-10-24T11:24:01.849Z,18.30
2022-10-24T11:26:34.423Z,18.30
2022-10-24T11:29:35.485Z,18.30
2022-10-24T11:32:19.136Z,18.40
2022-10-24T11:34:50.817Z,18.40
2022-10-24T11:37:36.440Z,18.40
2022-10-24T11:40:05.247Z,18.40
2022-10-24T11:42:53.470Z,18.40
2022-10-24T11:45:21.970Z,18.30
2022-10-24T11:48:03.873Z,18.40
2022-10-24T11:50:34.168Z,18.50
2022-10-24T11:53:20.922Z,18.50
2022-10-24T11:55:53.674Z,18.50
2022-10-24T11:58:21.846Z,18.50
2022-10-24T12:00:51.432Z,18.50
2022-10-24T12:03:31.927Z,18.50
2022-10-24T12:06:26.638Z,18.40
2022-10-24T12:09:11.407Z,18.50
2022-10-24T12:11:55.376Z,18.50
2022-10-24T12:14:27.550Z,18.50
2022-10-24T12:17:13.340Z,18.50
2022-10-24T12:19:41.799Z,18.50
2022-10-24T12:22:15.877Z,18.60
2022-10-24T12:24:42.528Z,18.50
2022-10-24T12:27:21.935Z,18.60
2022-10-24T12:30:09.685Z,18.60
2022-10-24T12:32:41.528Z,18.40
2022-10-24T12:35:31.410Z,18.50
2022-10-24T12:37:58.566Z,18.40
2022-10-24T12:40:46.518Z,18.40
2022-10-24T12:43:30.969Z,18.40
2022-10-24T12:46:00.285Z,18.40
2022-10-24T12:48:35.730Z,18.50
2022-10-24T12:51:34.433Z,18.60
2022-10-24T12:54:21.439Z,18.60
2022-10-24T12:56:51.207Z,18.80
2022-10-24T12:59:35.230Z,18.90
2022-10-24T13:02:10.846Z,18.90
2022-10-24T13:04:59.067Z,18.90
2022-10-24T13:07:37.578Z,18.80
2022-10-24T13:10:04.072Z,18.70
2022-10-24T13:12:50.070Z,18.80
2022-10-24T13:15:20.968Z,19.00
2022-10-24T13:18:16.189Z,19.10
2022-10-24T13:20:44.706Z,19.10
2022-10-24T13:23:17.495Z,19.20
2022-10-24T13:25:44.405Z,19.40
2022-10-24T13:28:20.050Z,19.50
2022-10-24T13:31:00.449Z,19.60
2022-10-24T13:33:30.214Z,19.30
2022-10-24T13:36:08.656Z,19.20
2022-10-24T13:38:41.715Z,19.30
2022-10-24T13:41:11.335Z,19.50
2022-10-24T13:43:46.133Z,19.20
2022-10-24T13:46:23.814Z,19.20
2022-10-24T13:48:51.265Z,19.10
2022-10-24T13:51:21.906Z,19.20
2022-10-24T13:55:06.892Z,19.00
2022-10-24T13:57:50.514Z,18.90
2022-10-24T14:00:23.999Z,19.00
2022-10-24T14:02:51.070Z,18.80
2022-10-24T14:05:20.796Z,18.80
2022-10-24T14:07:47.649Z,18.90
2022-10-24T14:10:16.976Z,18.80
2022-10-24T14:12:44.940Z,18.90
2022-10-24T14:15:18.411Z,18.90
2022-10-24T14:17:54.665Z,18.90
2022-10-24T14:20:33.361Z,18.80
2022-10-24T14:23:00.142Z,18.90
2022-10-24T14:25:31.913Z,18.90
2022-10-24T14:28:09.591Z,18.80
2022-10-24T14:30:36.126Z,18.80
2022-10-24T14:33:13.255Z,18.70
2022-10-24T14:35:40.014Z,18.60
2022-10-24T14:38:09.702Z,18.70
2022-10-24T14:40:36.606Z,18.60
2022-10-24T14:43:03.499Z,18.70
2022-10-24T14:45:31.140Z,18.80
2022-10-24T14:48:00.534Z,18.70
2022-10-24T14:50:41.320Z,18.70
2022-10-24T14:53:24.111Z,18.70
2022-10-24T14:55:52.313Z,18.80
2022-10-24T14:58:24.867Z,18.70
2022-10-24T15:00:54.481Z,18.80
2022-10-24T15:03:20.998Z,18.80
2022-10-24T15:05:59.451Z,18.60
2022-10-24T15:08:39.375Z,18.60
2022-10-24T15:11:21.933Z,18.60
2022-10-24T15:14:05.590Z,18.60
2022-10-24T15:16:35.943Z,18.50
2022-10-24T15:19:04.041Z,18.40
2022-10-24T15:21:38.634Z,18.40
2022-10-24T15:24:05.747Z,18.40
2022-10-24T15:26:40.406Z,18.30
2022-10-24T15:29:13.000Z,18.20
2022-10-24T15:31:44.569Z,18.20
2022-10-24T15:34:22.083Z,18.10
2022-10-24T15:36:50.244Z,18.10
2022-10-24T15:39:25.049Z,18.10
2022-10-24T15:41:52.390Z,18.10
2022-10-24T15:44:21.205Z,18.10
2022-10-24T15:46:48.519Z,18.00
2022-10-24T15:49:15.371Z,18.00
2022-10-24T15:51:45.994Z,17.90
2022-10-24T15:54:16.964Z,17.90
2022-10-24T15:56:43.655Z,17.80
2022-10-24T15:59:10.108Z,17.70
2022-10-24T16:01:40.647Z,17.70
2022-10-24T16:04:08.573Z,17.70
2022-10-24T16:06:35.160Z,17.70
2022-10-24T16:09:02.006Z,17.60
2022-10-24T16:11:29.028Z,17.60
2022-10-24T16:13:56.104Z,17.60
2022-10-24T16:16:22.665Z,17.70
2022-10-24T16:18:49.773Z,17.60
2022-10-24T16:21:18.865Z,17.60
2022-10-24T16:23:46.326Z,17.60
2022-10-24T16:26:13.007Z,17.60
2022-10-24T16:28:39.513Z,17.50
2022-10-24T16:31:06.641Z,17.40
2022-10-24T16:33:33.367Z,17.40
2022-10-24T16:35:59.918Z,17.40
2022-10-24T16:38:26.582Z,17.30
2022-10-24T16:40:54.018Z,17.30
2022-10-24T16:43:20.746Z,17.40
2022-10-24T16:46:00.272Z,17.40
2022-10-24T16:48:27.652Z,17.40
2022-10-24T16:50:54.608Z,17.30
2022-10-24T16:53:22.131Z,17.30
2022-10-24T16:55:53.854Z,17.30
2022-10-24T16:58:21.305Z,17.10
2022-10-24T17:00:48.892Z,17.10
2022-10-24T17:03:15.456Z,17.10
2022-10-24T17:08:17.566Z,17.00
2022-10-24T17:10:44.000Z,17.00
2022-10-24T17:13:10.494Z,17.00
2022-10-24T17:15:36.997Z,17.00
2022-10-24T17:18:03.588Z,16.90
2022-10-24T17:20:30.100Z,17.00
2022-10-24T17:22:57.323Z,17.00
2022-10-24T17:25:26.395Z,17.00
2022-10-24T17:27:54.176Z,16.90
2022-10-24T17:30:23.351Z,17.00
2022-10-24T17:32:50.198Z,16.90
2022-10-24T17:35:18.972Z,16.90
2022-10-24T17:38:11.514Z,16.90
2022-10-24T17:40:48.934Z,16.90
2022-10-24T17:43:22.565Z,16.90
2022-10-24T17:45:49.888Z,16.80
2022-10-24T17:48:17.400Z,16.80
2022-10-24T17:50:45.151Z,16.70
2022-10-24T17:53:17.076Z,16.70
2022-10-24T17:55:47.005Z,16.70
2022-10-24T17:58:15.123Z,16.70
2022-10-24T18:00:41.833Z,16.70
2022-10-24T18:03:11.168Z,16.70
2022-10-24T18:05:38.592Z,16.70
2022-10-24T18:08:07.063Z,16.70
2022-10-24T18:10:33.525Z,16.60
2022-10-24T18:13:00.423Z,16.60
2022-10-24T18:15:27.437Z,16.60
2022-10-24T18:17:54.049Z,16.70
2022-10-24T18:20:20.661Z,16.60
2022-10-24T18:22:47.436Z,16.50
2022-10-24T18:25:18.760Z,16.60
2022-10-24T18:27:48.607Z,16.60
2022-10-24T18:30:15.394Z,16.50
2022-10-24T18:32:41.901Z,16.50
2022-10-24T18:35:08.699Z,16.40
2022-10-24T18:37:35.788Z,16.40
2022-10-24T18:40:03.996Z,16.50
2022-10-24T18:42:38.373Z,16.60
2022-10-24T18:45:05.772Z,16.50
2022-10-24T18:47:32.815Z,16.40
2022-10-24T18:49:59.584Z,16.30
2022-10-24T18:52:59.797Z,16.30
2022-10-24T18:55:28.361Z,16.30
2022-10-24T18:57:55.442Z,16.30
2022-10-24T19:00:26.973Z,16.20
2022-10-24T19:03:28.210Z,16.30
2022-10-24T19:06:21.676Z,16.20
2022-10-24T19:08:48.231Z,16.30
2022-10-24T19:11:15.404Z,16.30
2022-10-24T19:13:43.027Z,16.30
2022-10-24T19:16:15.166Z,16.30
2022-10-24T19:18:48.042Z,16.30
2022-10-24T19:21:14.669Z,16.20
2022-10-24T19:23:41.206Z,16.10
2022-10-24T19:26:07.813Z,16.10
2022-10-24T19:28:34.493Z,16.30
2022-10-24T19:31:01.187Z,16.20
2022-10-24T19:33:29.427Z,16.20
2022-10-24T19:35:56.119Z,16.20
2022-10-24T19:38:22.687Z,16.20
2022-10-24T19:40:54.156Z,16.10
2022-10-24T19:43:21.708Z,16.20
2022-10-24T19:45:54.917Z,16.10
2022-10-24T19:48:31.320Z,16.10
2022-10-24T19:51:06.145Z,16.10
2022-10-24T19:53:38.483Z,16.10
2022-10-24T19:56:06.556Z,16.20
2022-10-24T19:58:33.123Z,16.20
2022-10-24T20:01:17.391Z,16.20
2022-10-24T20:03:45.919Z,16.20
2022-10-24T20:06:13.060Z,16.20
2022-10-24T20:08:39.538Z,16.20
2022-10-24T20:11:06.866Z,16.20
2022-10-24T20:13:33.751Z,16.20
2022-10-24T20:16:02.852Z,16.10
2022-10-24T20:18:30.499Z,16.20
2022-10-24T20:20:57.631Z,16.10
2022-10-24T20:23:24.887Z,16.10
2022-10-24T20:25:59.410Z,16.10
2022-10-24T20:28:26.044Z,16.10
2022-10-24T20:30:52.684Z,16.00
2022-10-24T20:33:19.308Z,16.00
2022-10-24T20:35:46.315Z,16.00
2022-10-24T20:38:12.892Z,16.00
2022-10-24T20:40:39.510Z,16.00
2022-10-24T20:43:07.107Z,16.00
2022-10-24T20:45:34.727Z,16.10
2022-10-24T20:48:01.460Z,16.00
2022-10-24T20:50:28.267Z,16.00
2022-10-24T20:52:54.811Z,15.80
2022-10-24T20:55:32.246Z,15.80
2022-10-24T20:58:06.309Z,15.80
2022-10-24T21:00:33.290Z,15.90
2022-10-24T21:02:59.853Z,15.90
2022-10-24T21:05:28.953Z,16.00
2022-10-24T21:07:56.042Z,15.80
2022-10-24T21:10:23.122Z,15.80
2022-10-24T21:12:50.289Z,15.80
2022-10-24T21:15:17.449Z,15.90
2022-10-24T21:17:44.085Z,15.80
2022-10-24T21:20:10.840Z,15.80
2022-10-24T21:22:37.391Z,15.90
2022-10-24T21:25:04.102Z,15.80
2022-10-24T21:27:31.160Z,15.80
2022-10-24T21:29:57.738Z,15.70
2022-10-24T21:32:24.347Z,15.70
2022-10-24T21:34:51.052Z,15.70
2022-10-24T21:37:17.538Z,15.60
2022-10-24T21:39:44.342Z,15.60
2022-10-24T21:42:11.209Z,15.70
2022-10-24T21:44:37.931Z,15.60
2022-10-24T21:47:04.698Z,15.70
2022-10-24T21:49:31.333Z,15.80
2022-10-24T21:51:57.845Z,15.70
2022-10-24T21:54:25.156Z,15.60
2022-10-24T21:56:51.796Z,15.60
2022-10-24T21:59:19.927Z,15.60
2022-10-24T22:01:47.501Z,15.70
2022-10-24T22:04:15.305Z,15.60
2022-10-24T22:06:42.013Z,15.70
2022-10-24T22:09:10.865Z,15.80
2022-10-24T22:11:37.441Z,15.80
2022-10-24T22:14:05.105Z,15.80
2022-10-24T22:16:32.593Z,15.70
2022-10-24T22:19:01.022Z,15.70
2022-10-24T22:21:37.538Z,15.60
2022-10-24T22:24:10.273Z,15.40
2022-10-24T22:26:37.873Z,15.60
2022-10-24T22:29:05.839Z,15.70
2022-10-24T22:31:32.925Z,15.50
2022-10-24T22:33:59.784Z,15.50
2022-10-24T22:36:40.301Z,15.60
2022-10-24T22:39:16.316Z,15.60
2022-10-24T22:41:43.656Z,15.60
2022-10-24T22:44:11.831Z,15.70
2022-10-24T22:47:25.947Z,15.60
2022-10-24T22:50:10.447Z,15.50
2022-10-24T22:52:37.297Z,15.50
2022-10-24T22:55:05.203Z,15.60
2022-10-24T22:57:33.101Z,15.30
2022-10-24T22:59:59.726Z,15.30
2022-10-24T23:02:36.310Z,15.30
2022-10-24T23:05:14.035Z,15.20
2022-10-24T23:07:53.871Z,15.40
2022-10-24T23:10:22.326Z,15.40
2022-10-24T23:12:49.712Z,15.50
2022-10-24T23:15:18.133Z,15.30
2022-10-24T23:17:46.011Z,15.30
2022-10-24T23:20:21.532Z,15.20
2022-10-24T23:22:54.367Z,15.20
2022-10-24T23:25:29.983Z,15.20
2022-10-24T23:28:21.894Z,15.30
2022-10-24T23:30:48.596Z,15.10
2022-10-24T23:33:22.951Z,15.10
2022-10-24T23:35:55.222Z,15.00
2022-10-24T23:38:21.922Z,15.10
2022-10-24T23:40:48.735Z,15.00
2022-10-24T23:43:16.767Z,14.90
2022-10-24T23:45:56.234Z,15.10
2022-10-24T23:48:47.187Z,15.00
2022-10-24T23:51:17.393Z,15.00
2022-10-24T23:53:52.764Z,15.20
2022-10-24T23:56:24.677Z,15.10
2022-10-24T23:58:51.671Z,14.90
